createdAt,value
2018-11-23T00:01:12.875Z,36.61
2018-11-23T00:03:39.214Z,36.64
2018-11-23T00:06:05.562Z,36.68
2018-11-23T00:08:31.897Z,36.67
2018-11-23T00:10:58.217Z,36.56
2018-11-23T00:13:24.542Z,36.51
2018-11-23T00:15:50.932Z,36.67
2018-11-23T00:18:17.270Z,36.71
2018-11-23T00:20:43.629Z,36.76
2018-11-23T00:23:10.003Z,36.71
2018-11-23T00:25:36.325Z,36.76
2018-11-23T00:28:02.758Z,36.82
2018-11-23T00:30:29.123Z,36.82
2018-11-23T00:32:55.416Z,36.73
2018-11-23T00:35:21.750Z,36.71
2018-11-23T00:37:48.100Z,36.77
2018-11-23T00:40:14.569Z,36.80
2018-11-23T00:42:40.898Z,36.73
2018-11-23T00:45:07.216Z,36.77
2018-11-23T00:47:33.535Z,36.91
2018-11-23T00:49:59.865Z,36.85
2018-11-23T00:52:26.270Z,36.87
2018-11-23T00:54:52.650Z,36.87
2018-11-23T00:57:18.982Z,36.86
2018-11-23T00:59:45.310Z,36.91
2018-11-23T01:02:11.695Z,36.90
2018-11-23T01:04:38.027Z,36.95
2018-11-23T01:07:04.384Z,36.94
2018-11-23T01:09:30.735Z,36.97
2018-11-23T01:11:58.149Z,36.91
2018-11-23T01:14:24.481Z,37.04
2018-11-23T01:16:50.870Z,37.01
2018-11-23T01:19:17.207Z,36.99
2018-11-23T01:21:43.530Z,37.04
2018-11-23T01:24:09.864Z,37.02
2018-11-23T01:26:36.191Z,37.21
2018-11-23T01:29:02.519Z,37.05
2018-11-23T01:31:28.857Z,37.08
2018-11-23T01:33:55.226Z,37.11
2018-11-23T01:36:21.553Z,37.07
2018-11-23T01:38:48.011Z,37.20
2018-11-23T01:41:14.362Z,37.11
2018-11-23T01:43:40.692Z,37.13
2018-11-23T01:46:07.095Z,37.17
2018-11-23T01:48:33.413Z,37.24
2018-11-23T01:50:59.795Z,37.20
2018-11-23T01:53:26.126Z,37.21
2018-11-23T01:55:52.457Z,37.22
2018-11-23T01:58:18.829Z,37.36
2018-11-23T02:00:45.174Z,37.31
2018-11-23T02:03:11.507Z,37.35
2018-11-23T02:05:37.846Z,37.13
2018-11-23T02:08:04.159Z,37.33
2018-11-23T02:10:30.536Z,37.51
2018-11-23T02:12:56.958Z,37.64
2018-11-23T02:15:23.324Z,37.58
2018-11-23T02:17:49.663Z,37.74
2018-11-23T02:20:16.004Z,37.69
2018-11-23T02:22:42.371Z,37.71
2018-11-23T02:25:08.734Z,37.64
2018-11-23T02:27:35.047Z,37.72
2018-11-23T02:30:01.378Z,37.67
2018-11-23T02:32:27.707Z,37.66
2018-11-23T02:34:54.034Z,37.64
2018-11-23T02:37:20.381Z,37.63
2018-11-23T02:39:46.720Z,37.56
2018-11-23T02:42:13.085Z,37.56
2018-11-23T02:44:39.385Z,37.53
2018-11-23T02:47:05.766Z,37.49
2018-11-23T02:49:32.118Z,37.47
2018-11-23T02:51:58.448Z,37.42
2018-11-23T02:54:24.827Z,37.42
2018-11-23T02:56:51.212Z,37.49
2018-11-23T02:59:17.624Z,37.42
2018-11-23T03:01:44.056Z,37.38
2018-11-23T03:04:10.406Z,37.37
2018-11-23T03:06:36.721Z,37.38
2018-11-23T03:09:03.078Z,37.29
2018-11-23T03:11:29.416Z,37.34
2018-11-23T03:13:55.754Z,37.34
2018-11-23T03:16:22.148Z,37.32
2018-11-23T03:18:48.543Z,37.32
2018-11-23T03:21:14.834Z,37.51
2018-11-23T03:23:41.231Z,37.58
2018-11-23T03:26:07.551Z,37.53
2018-11-23T03:28:33.882Z,37.48
2018-11-23T03:31:00.352Z,37.54
2018-11-23T03:33:26.694Z,37.54
2018-11-23T03:35:53.028Z,37.54
2018-11-23T03:38:19.355Z,37.61
2018-11-23T03:40:45.796Z,37.70
2018-11-23T03:43:12.216Z,37.61
2018-11-23T03:45:38.518Z,37.57
2018-11-23T03:48:04.868Z,37.59
2018-11-23T03:50:31.207Z,37.63
2018-11-23T03:52:57.533Z,37.68
2018-11-23T03:55:23.867Z,37.62
2018-11-23T03:57:52.436Z,37.47
2018-11-23T04:00:18.763Z,37.36
2018-11-23T04:02:45.085Z,37.32
2018-11-23T04:05:11.408Z,37.23
2018-11-23T04:07:37.779Z,37.11
2018-11-23T04:10:04.200Z,37.07
2018-11-23T04:12:30.503Z,37.00
2018-11-23T04:14:56.832Z,36.91
2018-11-23T04:17:23.188Z,36.86
2018-11-23T04:19:49.527Z,36.86
2018-11-23T04:22:15.862Z,36.70
2018-11-23T04:24:42.191Z,36.59
2018-11-23T04:27:08.517Z,36.60
2018-11-23T04:29:34.829Z,36.47
2018-11-23T04:32:01.203Z,36.31
2018-11-23T04:34:27.507Z,36.30
2018-11-23T04:36:53.904Z,36.33
2018-11-23T04:39:20.252Z,36.51
2018-11-23T04:41:46.689Z,36.64
2018-11-23T04:44:13.017Z,36.51
2018-11-23T04:46:39.346Z,36.64
2018-11-23T04:49:05.684Z,36.58
2018-11-23T04:51:32.023Z,36.47
2018-11-23T04:53:58.402Z,36.53
2018-11-23T04:56:24.731Z,36.46
2018-11-23T04:58:51.054Z,36.45
2018-11-23T05:01:17.459Z,36.40
2018-11-23T05:03:43.744Z,36.46
2018-11-23T05:06:10.121Z,36.42
2018-11-23T05:08:36.500Z,36.41
2018-11-23T05:11:02.938Z,36.37
2018-11-23T05:13:29.327Z,36.28
2018-11-23T05:15:55.663Z,36.34
2018-11-23T05:18:22.054Z,36.30
2018-11-23T05:20:48.376Z,36.25
2018-11-23T05:23:14.718Z,36.25
2018-11-23T05:25:41.060Z,36.22
2018-11-23T05:28:07.426Z,36.26
2018-11-23T05:30:33.748Z,36.15
2018-11-23T05:33:00.088Z,36.11
2018-11-23T05:35:26.408Z,36.17
2018-11-23T05:37:52.801Z,36.14
2018-11-23T05:40:19.209Z,36.13
2018-11-23T05:42:45.540Z,36.11
2018-11-23T05:45:11.991Z,36.20
2018-11-23T05:47:38.406Z,36.30
2018-11-23T05:50:04.779Z,35.99
2018-11-23T05:52:31.103Z,36.04
2018-11-23T05:54:57.428Z,35.99
2018-11-23T05:57:23.854Z,36.06
2018-11-23T05:59:50.170Z,36.11
2018-11-23T06:02:16.551Z,36.21
2018-11-23T06:04:43.055Z,36.19
2018-11-23T06:07:09.461Z,35.87
2018-11-23T06:09:35.726Z,35.92
2018-11-23T06:12:02.063Z,35.94
2018-11-23T06:14:28.379Z,35.84
2018-11-23T06:16:54.714Z,35.92
2018-11-23T06:19:21.053Z,35.88
2018-11-23T06:21:47.384Z,36.07
2018-11-23T06:24:13.710Z,35.96
2018-11-23T06:26:40.045Z,35.83
2018-11-23T06:29:06.369Z,36.03
2018-11-23T06:31:32.770Z,35.73
2018-11-23T06:33:59.045Z,35.71
2018-11-23T06:36:25.411Z,35.92
2018-11-23T06:38:51.744Z,36.13
2018-11-23T06:41:18.173Z,35.80
2018-11-23T06:43:44.451Z,35.78
2018-11-23T06:46:10.775Z,35.92
2018-11-23T06:48:37.105Z,36.19
2018-11-23T06:51:03.444Z,36.17
2018-11-23T06:53:29.782Z,36.04
2018-11-23T06:55:56.157Z,35.91
2018-11-23T06:58:22.485Z,35.62
2018-11-23T07:00:48.941Z,35.72
2018-11-23T07:03:15.270Z,35.90
2018-11-23T07:05:44.058Z,35.63
2018-11-23T07:08:10.402Z,35.58
2018-11-23T07:10:37.120Z,35.64
2018-11-23T07:13:03.435Z,35.36
2018-11-23T07:15:29.821Z,35.44
2018-11-23T07:17:56.144Z,35.67
2018-11-23T07:20:22.477Z,35.59
2018-11-23T07:22:48.800Z,35.71
2018-11-23T07:25:15.128Z,35.54
2018-11-23T07:27:41.459Z,35.53
2018-11-23T07:30:08.012Z,35.42
2018-11-23T07:32:34.422Z,35.40
2018-11-23T07:35:00.865Z,35.27
2018-11-23T07:37:27.200Z,35.28
2018-11-23T07:39:53.595Z,35.26
2018-11-23T07:42:20.060Z,35.37
2018-11-23T07:44:46.473Z,35.69
2018-11-23T07:47:15.073Z,35.65
2018-11-23T07:49:41.467Z,35.65
2018-11-23T07:52:07.931Z,35.50
2018-11-23T07:54:34.298Z,35.50
2018-11-23T07:57:00.975Z,35.43
2018-11-23T07:59:27.315Z,35.47
2018-11-23T08:01:54.731Z,36.15
2018-11-23T08:04:21.053Z,35.92
2018-11-23T08:06:47.379Z,35.92
2018-11-23T08:09:13.724Z,35.95
2018-11-23T08:11:40.043Z,35.56
2018-11-23T08:14:06.364Z,35.57
2018-11-23T08:16:32.731Z,35.81
2018-11-23T08:18:59.162Z,35.74
2018-11-23T08:21:25.499Z,35.42
2018-11-23T08:23:51.827Z,35.38
2018-11-23T08:26:18.292Z,35.49
2018-11-23T08:28:44.700Z,35.23
2018-11-23T08:31:11.025Z,35.36
2018-11-23T08:33:37.417Z,35.46
2018-11-23T08:36:03.793Z,35.15
2018-11-23T08:38:30.119Z,35.30
2018-11-23T08:40:56.532Z,35.38
2018-11-23T08:43:22.874Z,35.61
2018-11-23T08:45:49.223Z,35.24
2018-11-23T08:48:15.681Z,35.46
2018-11-23T08:50:42.039Z,35.39
2018-11-23T08:53:08.404Z,35.29
2018-11-23T08:55:34.825Z,35.19
2018-11-23T08:58:01.291Z,35.22
2018-11-23T09:00:28.710Z,35.41
2018-11-23T09:02:55.131Z,35.15
2018-11-23T09:05:21.520Z,35.25
2018-11-23T09:07:47.938Z,35.32
2018-11-23T09:10:14.274Z,35.47
2018-11-23T09:12:40.719Z,35.14
2018-11-23T09:15:07.339Z,35.36
2018-11-23T09:17:33.766Z,34.88
2018-11-23T09:20:00.500Z,35.04
2018-11-23T09:22:27.257Z,34.72
2018-11-23T09:24:53.563Z,35.10
2018-11-23T09:27:20.021Z,34.72
2018-11-23T09:29:46.424Z,34.98
2018-11-23T09:32:12.807Z,34.79
2018-11-23T09:34:39.085Z,34.82
2018-11-23T09:37:05.412Z,34.92
2018-11-23T09:39:34.361Z,34.72
2018-11-23T09:42:00.684Z,34.67
2018-11-23T09:44:27.030Z,34.61
2018-11-23T09:46:53.357Z,34.70
2018-11-23T09:49:19.706Z,34.71
2018-11-23T09:51:46.032Z,34.46
2018-11-23T09:54:12.364Z,34.75
2018-11-23T09:56:38.764Z,35.55
2018-11-23T09:59:05.099Z,34.83
2018-11-23T10:01:31.412Z,34.74
2018-11-23T10:03:57.747Z,34.50
2018-11-23T10:06:24.151Z,34.63
2018-11-23T10:08:50.488Z,34.61
2018-11-23T10:11:16.827Z,34.77
2018-11-23T10:13:43.190Z,34.13
2018-11-23T10:18:42.860Z,33.84
2018-11-23T10:21:09.252Z,34.14
2018-11-23T10:23:35.592Z,34.59
2018-11-23T10:26:01.929Z,34.19
2018-11-23T10:28:28.433Z,34.19
2018-11-23T10:30:55.152Z,34.04
2018-11-23T10:33:21.496Z,34.38
2018-11-23T10:35:47.812Z,34.10
2018-11-23T10:38:14.249Z,33.99
2018-11-23T10:40:40.677Z,34.05
2018-11-23T10:43:08.022Z,33.73
2018-11-23T10:45:34.423Z,34.31
2018-11-23T10:48:00.809Z,33.87
2018-11-23T11:25:51.198Z,36.13
2018-11-23T11:28:18.034Z,36.25
2018-11-23T11:30:44.358Z,36.10
2018-11-23T11:33:10.696Z,35.93
2018-11-23T11:35:37.032Z,35.21
2018-11-23T11:38:03.362Z,35.22
2018-11-23T11:40:29.693Z,35.77
2018-11-23T11:42:56.023Z,35.43
2018-11-23T11:45:22.371Z,35.13
2018-11-23T11:47:48.718Z,35.14
2018-11-23T11:50:15.049Z,35.21
2018-11-23T11:52:41.628Z,34.65
2018-11-23T11:55:08.909Z,34.95
2018-11-23T11:57:35.536Z,34.74
2018-11-23T12:00:01.846Z,35.50
2018-11-23T12:02:28.207Z,35.12
2018-11-23T12:04:55.656Z,34.83
2018-11-23T12:07:21.986Z,35.09
2018-11-23T12:09:48.567Z,34.80
2018-11-23T12:12:14.957Z,34.59
2018-11-23T12:14:41.278Z,35.06
2018-11-23T12:17:08.739Z,34.09
2018-11-23T12:19:35.170Z,34.50
2018-11-23T12:22:01.655Z,34.90
2018-11-23T12:24:28.189Z,34.13
2018-11-23T12:26:54.562Z,34.28
2018-11-23T12:29:20.908Z,33.96
2018-11-23T12:31:47.384Z,34.09
2018-11-23T12:34:13.784Z,33.88
2018-11-23T12:36:40.103Z,34.17
2018-11-23T12:39:06.433Z,34.33
2018-11-23T12:41:32.820Z,33.40
2018-11-23T12:43:59.176Z,34.20
2018-11-23T12:46:26.146Z,34.04
2018-11-23T12:48:52.504Z,33.81
2018-11-23T12:51:18.862Z,33.74
2018-11-23T12:53:45.266Z,34.10
2018-11-23T12:56:11.705Z,33.61
2018-11-23T12:58:38.123Z,33.59
2018-11-23T13:01:04.460Z,34.21
2018-11-23T13:03:30.904Z,33.41
2018-11-23T13:05:57.341Z,33.86
2018-11-23T13:08:23.708Z,33.43
2018-11-23T13:10:50.022Z,33.22
2018-11-23T13:13:16.529Z,33.84
2018-11-23T13:15:43.024Z,33.61
2018-11-23T13:18:09.409Z,33.35
2018-11-23T13:20:35.809Z,33.40
2018-11-23T13:23:02.180Z,33.36
2018-11-23T13:25:28.615Z,33.29
2018-11-23T13:27:55.905Z,33.15
2018-11-23T13:30:22.263Z,33.29
2018-11-23T13:32:48.635Z,33.03
2018-11-23T13:35:15.097Z,33.22
2018-11-23T13:37:41.573Z,33.26
2018-11-23T13:40:07.922Z,33.31
2018-11-23T13:42:34.423Z,33.33
2018-11-23T13:45:00.862Z,33.09
2018-11-23T13:47:27.264Z,33.22
2018-11-23T13:49:53.616Z,33.16
2018-11-23T13:52:20.286Z,33.29
2018-11-23T13:54:46.664Z,33.92
2018-11-23T13:57:13.127Z,33.17
2018-11-23T13:59:39.601Z,33.27
2018-11-23T14:02:06.007Z,33.37
2018-11-23T14:04:32.361Z,33.39
2018-11-23T14:06:59.717Z,33.55
2018-11-23T14:09:26.092Z,33.45
2018-11-23T14:11:52.516Z,33.75
2018-11-23T14:14:18.845Z,33.79
2018-11-23T14:16:45.175Z,33.83
2018-11-23T14:19:12.139Z,33.66
2018-11-23T14:21:38.408Z,33.70
2018-11-23T14:24:04.806Z,33.53
2018-11-23T14:26:31.154Z,33.57
2018-11-23T14:28:58.011Z,33.46
2018-11-23T14:31:24.510Z,33.61
2018-11-23T14:33:50.899Z,33.54
2018-11-23T14:36:17.199Z,33.30
2018-11-23T14:38:43.521Z,33.18
2018-11-23T14:41:09.884Z,33.60
2018-11-23T14:43:36.290Z,33.42
2018-11-23T14:46:02.696Z,33.36
2018-11-23T14:48:29.051Z,33.26
2018-11-23T14:50:55.442Z,33.82
2018-11-23T14:53:21.789Z,33.44
2018-11-23T14:55:48.176Z,33.69
2018-11-23T14:58:16.826Z,33.44
2018-11-23T15:00:43.155Z,33.45
2018-11-23T15:03:09.551Z,34.27
2018-11-23T15:05:35.938Z,33.59
2018-11-23T15:08:02.262Z,33.52
2018-11-23T15:10:28.701Z,33.83
2018-11-23T15:12:56.128Z,33.50
2018-11-23T15:15:22.483Z,33.64
2018-11-23T15:17:48.999Z,33.88
2018-11-23T15:20:15.428Z,33.59
2018-11-23T15:22:42.140Z,33.57
2018-11-23T15:25:08.581Z,34.18
2018-11-23T15:27:35.026Z,33.76
2018-11-23T15:30:03.549Z,34.03
2018-11-23T15:32:27.787Z,33.96
2018-11-23T15:34:54.223Z,33.79
2018-11-23T15:37:20.630Z,34.06
2018-11-23T15:39:48.133Z,33.70
2018-11-23T15:42:14.523Z,33.73
2018-11-23T15:44:40.853Z,34.09
2018-11-23T15:47:07.495Z,33.82
2018-11-23T15:49:33.873Z,33.77
2018-11-23T15:52:00.255Z,33.99
2018-11-23T15:54:26.787Z,34.06
2018-11-23T15:56:53.157Z,34.19
2018-11-23T15:59:19.513Z,34.20
2018-11-23T16:01:45.850Z,34.46
2018-11-23T16:04:12.242Z,34.47
2018-11-23T16:06:38.669Z,34.45
2018-11-23T16:09:05.106Z,34.41
2018-11-23T16:11:31.721Z,34.43
2018-11-23T16:13:57.970Z,34.40
2018-11-23T16:16:24.366Z,34.59
2018-11-23T16:18:50.702Z,34.62
2018-11-23T16:21:17.135Z,34.48
2018-11-23T16:23:43.465Z,34.50
2018-11-23T16:26:09.794Z,34.49
2018-11-23T16:28:36.238Z,34.51
2018-11-23T16:31:02.668Z,34.83
2018-11-23T16:35:55.079Z,34.79
2018-11-23T16:38:21.468Z,34.93
2018-11-23T16:40:47.817Z,34.71
2018-11-23T16:43:14.151Z,34.68
2018-11-23T16:45:40.477Z,34.77
2018-11-23T16:48:06.809Z,34.83
2018-11-23T16:50:33.140Z,35.19
2018-11-23T16:52:59.487Z,34.92
2018-11-23T16:55:25.965Z,34.97
2018-11-23T16:57:52.316Z,35.10
2018-11-23T17:00:18.722Z,35.30
2018-11-23T17:02:45.137Z,35.17
2018-11-23T17:05:11.533Z,35.41
2018-11-23T17:07:37.870Z,35.23
2018-11-23T17:10:04.190Z,35.10
2018-11-23T17:12:30.585Z,35.12
2018-11-23T17:14:56.923Z,35.20
2018-11-23T17:17:23.297Z,35.39
2018-11-23T17:19:49.616Z,35.19
2018-11-23T17:22:15.947Z,35.15
2018-11-23T17:24:42.284Z,35.12
2018-11-23T17:27:08.671Z,35.29
2018-11-23T17:29:35.008Z,34.96
2018-11-23T17:32:01.349Z,35.10
2018-11-23T17:34:27.764Z,35.32
2018-11-23T17:36:54.131Z,35.22
2018-11-23T17:39:20.536Z,35.35
2018-11-23T17:41:46.918Z,35.29
2018-11-23T17:44:13.270Z,35.42
2018-11-23T17:46:39.762Z,35.38
2018-11-23T17:49:06.184Z,35.51
2018-11-23T17:51:32.477Z,35.53
2018-11-23T17:53:58.798Z,35.64
2018-11-23T17:56:25.177Z,35.71
2018-11-23T17:58:51.612Z,35.68
2018-11-23T18:01:18.088Z,35.73
2018-11-23T18:03:44.366Z,35.70
2018-11-23T18:06:10.695Z,35.85
2018-11-23T18:08:38.975Z,36.02
2018-11-23T18:11:03.414Z,35.74
2018-11-23T18:13:29.763Z,35.73
2018-11-23T18:15:56.148Z,35.65
2018-11-23T18:18:22.552Z,35.85
2018-11-23T18:20:48.890Z,35.63
2018-11-23T18:23:15.425Z,35.65
2018-11-23T18:25:41.761Z,35.72
2018-11-23T18:28:08.171Z,35.43
2018-11-23T18:30:34.533Z,35.66
2018-11-23T18:33:00.917Z,35.67
2018-11-23T18:35:27.321Z,35.68
2018-11-23T18:37:53.706Z,35.49
2018-11-23T18:40:20.051Z,35.52
2018-11-23T18:42:46.426Z,35.63
2018-11-23T18:45:12.746Z,35.63
2018-11-23T18:47:39.115Z,35.57
2018-11-23T18:50:05.454Z,35.57
2018-11-23T18:52:31.808Z,35.49
2018-11-23T18:54:58.137Z,35.60
2018-11-23T18:57:24.607Z,35.47
2018-11-23T18:59:50.944Z,35.49
2018-11-23T19:02:17.423Z,35.56
2018-11-23T19:04:43.755Z,35.55
2018-11-23T19:07:10.152Z,35.50
2018-11-23T19:09:36.543Z,35.45
2018-11-23T19:12:02.926Z,35.47
2018-11-23T19:14:29.248Z,35.40
2018-11-23T19:16:55.575Z,35.47
2018-11-23T19:19:21.946Z,35.45
2018-11-23T19:21:48.288Z,35.38
2018-11-23T19:24:14.657Z,35.41
2018-11-23T19:26:40.966Z,35.44
2018-11-23T19:29:07.299Z,35.49
2018-11-23T19:31:33.680Z,35.50
2018-11-23T19:34:00.017Z,35.41
2018-11-23T19:36:26.359Z,35.41
2018-11-23T19:38:52.709Z,35.41
2018-11-23T19:41:19.209Z,35.53
2018-11-23T19:43:45.586Z,35.52
2018-11-23T19:46:11.978Z,35.46
2018-11-23T19:48:38.314Z,35.46
2018-11-23T19:51:04.829Z,35.49
2018-11-23T19:53:31.174Z,35.48
2018-11-23T19:55:57.517Z,35.53
2018-11-23T19:58:23.846Z,35.58
2018-11-23T20:00:50.177Z,35.45
2018-11-23T20:03:16.557Z,35.39
2018-11-23T20:05:42.943Z,35.52
2018-11-23T20:08:09.281Z,35.70
2018-11-23T20:10:35.612Z,35.73
2018-11-23T20:13:01.944Z,35.70
2018-11-23T20:15:30.605Z,35.71
2018-11-23T20:17:56.926Z,35.65
2018-11-23T20:20:23.343Z,35.76
2018-11-23T20:22:49.689Z,35.96
2018-11-23T20:25:16.075Z,35.98
2018-11-23T20:27:44.807Z,36.10
2018-11-23T20:30:11.179Z,36.28
2018-11-23T20:32:37.504Z,36.44
2018-11-23T20:35:03.905Z,36.33
2018-11-23T20:37:30.232Z,36.44
2018-11-23T20:39:56.554Z,36.69
2018-11-23T20:42:22.899Z,36.70
2018-11-23T20:44:49.233Z,36.71
2018-11-23T20:47:15.569Z,36.71
2018-11-23T20:49:45.851Z,36.90
2018-11-23T20:52:08.319Z,36.81
2018-11-23T20:54:34.649Z,36.75
2018-11-23T20:57:00.995Z,36.91
2018-11-23T20:59:27.325Z,37.01
2018-11-23T21:01:54.832Z,37.10
2018-11-23T21:04:20.058Z,37.08
2018-11-23T21:06:46.430Z,36.98
2018-11-23T21:09:12.797Z,37.14
2018-11-23T21:11:39.081Z,37.15
2018-11-23T21:14:05.583Z,37.23
2018-11-23T21:16:31.922Z,37.23
2018-11-23T21:18:58.245Z,37.23
2018-11-23T21:21:24.576Z,37.18
2018-11-23T21:23:50.968Z,37.28
2018-11-23T21:26:17.341Z,37.31
2018-11-23T21:28:46.799Z,37.23
2018-11-23T21:31:13.161Z,37.21
2018-11-23T21:33:39.498Z,37.16
2018-11-23T21:36:05.835Z,37.26
2018-11-23T21:38:32.268Z,37.23
2018-11-23T21:40:58.726Z,37.17
2018-11-23T21:43:25.064Z,37.27
2018-11-23T21:45:51.399Z,37.08
2018-11-23T21:48:17.781Z,37.12
2018-11-23T21:50:44.110Z,37.13
2018-11-23T21:53:10.490Z,37.14
2018-11-23T21:55:36.811Z,37.10
2018-11-23T21:58:03.145Z,37.14
2018-11-23T22:00:29.470Z,37.01
2018-11-23T22:02:55.811Z,37.04
2018-11-23T22:05:22.149Z,37.05
2018-11-23T22:07:48.482Z,37.11
2018-11-23T22:10:14.815Z,37.05
2018-11-23T22:12:41.236Z,37.06
2018-11-23T22:15:07.628Z,37.08
2018-11-23T22:17:33.960Z,37.10
2018-11-23T22:20:00.288Z,37.15
2018-11-23T22:22:26.619Z,37.05
2018-11-23T22:24:52.975Z,37.12
2018-11-23T22:27:19.335Z,37.20
2018-11-23T22:29:45.682Z,37.14
2018-11-23T22:32:12.060Z,37.09
2018-11-23T22:34:38.387Z,37.02
2018-11-23T22:37:04.772Z,37.09
2018-11-23T22:39:31.138Z,37.19
2018-11-23T22:41:57.593Z,37.18
2018-11-23T22:44:23.971Z,37.08
2018-11-23T22:46:50.414Z,36.96
2018-11-23T22:49:16.702Z,37.03
2018-11-23T22:51:43.045Z,37.01
2018-11-23T22:54:09.370Z,37.05
2018-11-23T22:56:35.699Z,36.97
2018-11-23T22:59:02.076Z,36.97
2018-11-23T23:01:28.410Z,36.93
2018-11-23T23:03:54.775Z,36.90
2018-11-23T23:06:21.105Z,36.90
2018-11-23T23:08:47.424Z,36.76
2018-11-23T23:11:13.773Z,36.88
2018-11-23T23:13:40.109Z,36.94
2018-11-23T23:16:06.465Z,36.85
2018-11-23T23:18:32.801Z,36.95
2018-11-23T23:20:59.184Z,36.72
2018-11-23T23:23:25.578Z,36.75
2018-11-23T23:25:51.966Z,36.78
2018-11-23T23:28:18.291Z,36.91
2018-11-23T23:30:44.620Z,36.91
2018-11-23T23:33:10.958Z,36.74
2018-11-23T23:35:37.390Z,36.73
2018-11-23T23:38:03.722Z,36.81
2018-11-23T23:40:30.050Z,36.76
2018-11-23T23:42:56.424Z,36.83
2018-11-23T23:45:22.758Z,36.90
2018-11-23T23:47:49.117Z,36.72
2018-11-23T23:50:15.436Z,36.71
2018-11-23T23:52:41.818Z,36.64
2018-11-23T23:55:08.165Z,36.72
2018-11-23T23:57:34.529Z,36.69
